x

Lake Winnipeg S. Basin (45140) Weather Station

9:00am - Tue 21st Oct 2014 All times are UTC.

  • Peak Period 3s
  • Wind
    22mph, 27mph gusts
  • Sea Temp 48°f
  • Air Temp 44°f
  • Sea Pressure 1018.1mb

More Historic Weather Station data

Upgrade to MSW Pro to gain access to the past 30 days of data for over 8000 Wavebouys and Weather Stations around the globe.

Join Pro

Comparision Forecast

View Surf forecast
   
Tue 10/21 9:00am 3s 22 27 mph 1018.1mb 48f 44f
8:00am 3s 20 25 mph 1018.2mb 48f 45f
7:00am 3s 20 25 mph 1018.2mb 48f 45f
6:00am 3s 20 25 mph 1017.8mb 48f 46f
5:00am 3s 20 22 mph 1017.8mb 48f 46f
4:00am 3s 22 25 mph 1017.7mb 48f 45f
3:00am 3s 18 22 mph 1017.9mb 48f 47f
2:00am 3s 11 13 mph 1018mb 48f 47f
1:00am 3s 7 9 mph 1018.4mb 48f 46f
12:00am 3s 4 7 mph 1018.7mb 49f 45f
Mon 10/20 11:00pm 2s 4
mph
1018.7mb 49f 45f
10:00pm 2s 2 4 mph 1018.7mb 49f 44f
9:00pm 2s 2 4 mph 1018.6mb 50f 44f
8:00pm 2s 2
mph
1018.8mb 49f 43f
7:00pm 2s 2 4 mph 1019.1mb 49f 43f
6:00pm 2s 2 4 mph 1019.8mb 48f 43f
5:00pm 2s 4 7 mph 1019.9mb 48f 42f
4:00pm 3s 7 9 mph 1019.8mb 48f 43f
3:00pm 3s 9 11 mph 1019.6mb 48f 43f
2:00pm 3s 7 9 mph 1019mb 48f 43f
1:00pm 3s 7 11 mph 1018.5mb 48f 43f
12:00pm 3s 11 13 mph 1017.8mb 48f 43f
11:00am 3s 9 13 mph 1017.5mb 48f 44f
10:00am 3s 13 16 mph 1017.5mb 48f 44f
9:00am 3s 13 18 mph 1016.8mb 48f 45f
8:00am 3s 18 20 mph 1016.1mb 48f 46f
7:00am 3s 18 20 mph 1015.4mb 48f 46f
6:00am 3s 18 22 mph 1014.6mb 48f 46f
5:00am 3s 16 18 mph 1014mb 48f 46f
3:00am 3s 13 18 mph 1013mb 48f 47f
2:00am 3s 13 16 mph 1012.6mb 48f 48f
1:00am 3s 16 18 mph 1012.3mb 48f 49f
12:00am 3s 9
mph
1011.7mb 48f 50f
Sun 10/19 11:00pm 3s 2 4 mph 1010.9mb 48f 48f
10:00pm 2s 4 7 mph 1010mb 48f 48f
9:00pm 2s 7
mph
1009.5mb 48f 47f
8:00pm 2s 4 7 mph 1009.1mb 48f 47f
7:00pm 2s 7 9 mph 1009.2mb 48f 49f
6:00pm 2s 7 9 mph 1008.8mb 48f 47f
5:00pm 2s 11 13 mph 1008.1mb 48f 47f
4:00pm 2s 13 18 mph 1007.8mb 48f 46f
3:00pm 2s 16 18 mph 1007.4mb 48f 44f
2:00pm 2s 9 11 mph 1006.6mb 48f 44f
1:00pm 4s 11 13 mph 1006.6mb 48f 44f
12:00pm 4s 13 18 mph 1006.4mb 48f 44f
11:00am 4s 16 18 mph 1006.2mb 48f 45f
10:00am 4s 18 22 mph 1006.5mb 48f 45f
9:00am 4s 20 25 mph 1006.7mb 48f 45f
8:00am 4s 20 25 mph 1007.6mb 48f 45f
6:00am 4s 25 29 mph 1009mb 48f 45f
5:00am  -  27
mph
- - -
3:00am 4s 22 27 mph 1012.6mb 48f 45f
2:00am 4s 25 29 mph 1012.9mb 48f 45f
1:00am  -  25
mph
- - 44f
12:00am  -  27
mph
- - -
Sat 10/18 11:00pm 3s 25 29 mph 1015.5mb 49f 44f
10:00pm 3s 22 29 mph 1016.6mb 48f 43f
9:00pm 3s 22 27 mph 1018mb 48f 43f
8:00pm  -  20
mph
1018.8mb 48f 42f
7:00pm 3s 20 22 mph 1019.7mb 48f 41f
6:00pm 2s 20 25 mph 1021.1mb 48f 40f
5:00pm 2s 18 20 mph 1021.9mb 48f 40f
4:00pm 2s 16 18 mph 1022.6mb 48f 39f
3:00pm 3s 13 16 mph 1023.4mb 48f 38f
2:00pm 3s 11 13 mph 1023.7mb 48f 37f
1:00pm 4s 11 13 mph 1024mb 48f 37f
12:00pm 4s 9 11 mph 1024.2mb 48f 37f
11:00am 4s 9 13 mph 1024.7mb 48f 37f
10:00am 4s 9 13 mph 1025mb 48f 38f
9:00am 4s 9 11 mph 1025mb 49f 37f
8:00am 3s 9 13 mph 1024.9mb 49f 38f
7:00am 3s 9 13 mph 1024.7mb 49f 38f
6:00am 3s 13 16 mph 1024.6mb 48f 39f
5:00am 3s 11 16 mph 1024.9mb 50f 40f
4:00am 3s 11 16 mph 1024.9mb 50f 41f
3:00am 3s 13 20 mph 1024.7mb 49f 42f
2:00am 3s 13 18 mph 1024.5mb 51f 43f
1:00am 3s 16 18 mph 1024.4mb 50f 43f
12:00am 3s 16 20 mph 1023.8mb 49f 44f
Fri 10/17 11:00pm 3s 18 20 mph 1023.6mb 49f 43f
10:00pm 3s 18 20 mph 1023.1mb 49f 43f
9:00pm 2s 18 20 mph 1022.7mb 49f 43f
8:00pm 2s 18 20 mph 1022.4mb 49f 42f
7:00pm 2s 18 20 mph 1021.8mb 49f 42f
6:00pm 2s 18 22 mph 1021.3mb 49f 41f
5:00pm 2s 20 25 mph 1021mb 49f 41f
4:00pm 2s 22 27 mph 1020.3mb 49f 41f
3:00pm 3s 22 29 mph 1019.8mb 49f 41f
2:00pm 3s 25 29 mph 1019.3mb 49f 41f
1:00pm 3s 27 31 mph 1017.9mb 49f 42f
12:00pm 3s 27 31 mph 1016.6mb 49f 42f
11:00am 3s 25 29 mph 1015.8mb 49f 42f